Time;durP1;ratioP1;P1;durP2;ratioP2;P2;SDS_P1;SDS_P2;PMS_P1;PMS_P2;Temp;Humidity;BMP_temperature;BMP_pressure;BME280_temperature;BME280_humidity;BME280_pressure;Samples;Min_cycle;Max_cycle;Signal;HPM_P1;HPM_P2
2023/03/14 00:00:10;;;;;;;;;;;;;;;15.43;52.58;98149.78;4976540;28;7242;-77
2023/03/14 00:02:36;;;;;;;;;;;;;;;15.39;51.55;98154.97;4968436;28;11678;-80
2023/03/14 00:05:06;;;;;;;;;;;;;;;15.10;51.64;98161.19;4977729;28;6872;-79
2023/03/14 00:07:41;;;;;;;;;;;;;;;14.74;51.99;98145.06;4967751;28;7262;-79
2023/03/14 00:10:12;;;;;;;;;;;;;;;14.39;52.44;98166.66;4973236;28;6871;-79
2023/03/14 00:12:38;;;;;;;;;;;;;;;14.05;52.26;98156.44;4985286;28;6983;-76
2023/03/14 00:15:06;;;;;;;;;;;;;;;13.70;53.19;98143.63;4973811;28;6788;-79
2023/03/14 00:17:33;;;;;;;;;;;;;;;13.45;54.00;98156.50;4966424;28;7146;-80
2023/03/14 00:20:07;;;;;;;;;;;;;;;13.29;54.87;98149.59;4975082;28;6796;-78
2023/03/14 00:22:38;;;;;;;;;;;;;;;13.18;55.32;98159.84;4974133;28;6888;-80
2023/03/14 00:25:07;;;;;;;;;;;;;;;13.09;56.16;98147.84;4991685;28;6961;-78
2023/03/14 00:27:33;;;;;;;;;;;;;;;13.05;57.11;98151.28;4990414;28;7071;-80
2023/03/14 00:29:58;;;;;;;;;;;;;;;13.03;57.56;98160.69;4990257;28;6903;-80
2023/03/14 00:32:24;;;;;;;;;;;;;;;13.04;57.72;98167.59;4990554;28;6956;-76
2023/03/14 00:34:49;;;;;;;;;;;;;;;13.05;58.35;98169.28;4988779;28;6776;-80
2023/03/14 00:37:15;;;;;;;;;;;;;;;13.05;58.62;98162.41;4985130;28;7324;-74
2023/03/14 00:39:41;;;;;;;;;;;;;;;13.09;59.12;98152.16;4976722;28;6788;-74
2023/03/14 00:42:07;;;;;;;;;;;;;;;13.08;59.42;98141.00;4974491;28;7856;-74
2023/03/14 00:44:32;;;;;;;;;;;;;;;13.11;59.64;98133.28;4988070;28;6780;-75
2023/03/14 00:46:58;;;;;;;;;;;;;;;13.13;59.88;98147.00;4977094;28;7215;-74
2023/03/14 00:49:24;;;;;;;;;;;;;;;13.15;59.02;98137.59;4966957;28;7932;-74
2023/03/14 00:51:51;;;;;;;;;;;;;;;13.24;59.79;98147.03;4981195;28;7314;-75
2023/03/14 00:54:18;;;;;;;;;;;;;;;13.32;59.77;98144.44;4983999;28;7067;-75
2023/03/14 00:56:44;;;;;;;;;;;;;;;13.42;58.55;98143.63;4986988;28;7043;-75
2023/03/14 00:59:09;;;;;;;;;;;;;;;13.49;58.64;98149.66;4983762;28;6984;-75
2023/03/14 01:01:35;;;;;;;;;;;;;;;13.51;59.24;98145.34;4964046;28;8060;-74
2023/03/14 01:04:01;;;;;;;;;;;;;;;13.57;59.22;98145.38;4969908;28;6771;-75
2023/03/14 01:06:28;;;;;;;;;;;;;;;13.61;58.87;98141.91;4979196;28;6844;-75
2023/03/14 01:08:57;;;;;;;;;;;;;;;13.64;59.10;98141.06;4986992;28;6816;-74
2023/03/14 01:11:33;;;;;;;;;;;;;;;13.68;58.76;98127.31;4984327;28;6964;-75
2023/03/14 01:14:00;;;;;;;;;;;;;;;13.72;58.16;98139.34;4967039;28;7253;-74
2023/03/14 01:16:29;;;;;;;;;;;;;;;13.75;59.15;98125.59;4978027;28;7142;-75
2023/03/14 01:18:55;;;;;;;;;;;;;;;13.79;59.05;98118.72;4964702;28;9617;-74
2023/03/14 01:21:32;;;;;;;;;;;;;;;13.82;57.99;98111.00;4981211;28;7261;-74
2023/03/14 01:24:00;;;;;;;;;;;;;;;13.84;58.88;98101.56;4989058;28;7042;-74
2023/03/14 01:26:29;;;;;;;;;;;;;;;13.85;57.74;98092.97;4974261;28;7210;-74
2023/03/14 01:28:56;;;;;;;;;;;;;;;13.86;58.56;98097.25;4969277;28;6797;-75
2023/03/14 01:31:23;;;;;;;;;;;;;;;13.83;57.98;98095.53;4991865;28;7100;-75
2023/03/14 01:33:49;;;;;;;;;;;;;;;13.78;57.18;98086.13;4983595;28;6872;-74
2023/03/14 01:36:16;;;;;;;;;;;;;;;13.70;58.44;98084.41;4982623;28;6811;-74
2023/03/14 01:38:42;;;;;;;;;;;;;;;13.65;57.82;98086.16;4985222;28;6792;-74
2023/03/14 01:41:18;;;;;;;;;;;;;;;13.62;58.53;98081.03;4979832;28;7308;-75
2023/03/14 01:43:44;;;;;;;;;;;;;;;13.62;58.25;98081.03;4983260;28;6875;-74
2023/03/14 01:46:28;;;;;;;;;;;;;;;13.62;57.88;98088.75;4989098;28;6943;-75
2023/03/14 01:49:22;;;;;;;;;;;;;;;13.60;57.53;98078.44;4982924;28;7229;-74
2023/03/14 01:52:31;;;;;;;;;;;;;;;13.63;58.90;98067.28;4975506;28;7165;-75
2023/03/14 01:55:12;;;;;;;;;;;;;;;13.64;58.37;98058.69;4973496;28;6967;-75
2023/03/14 01:57:48;;;;;;;;;;;;;;;13.64;58.12;98061.28;4983405;28;6805;-74
2023/03/14 02:00:20;;;;;;;;;;;;;;;13.66;57.87;98056.97;4965804;28;7033;-75
2023/03/14 02:02:50;;;;;;;;;;;;;;;13.69;58.10;98064.69;4980387;28;8580;-75
2023/03/14 02:05:22;;;;;;;;;;;;;;;13.73;58.13;98053.53;4983367;28;6991;-75
2023/03/14 02:07:58;;;;;;;;;;;;;;;13.77;58.35;98067.25;4970420;28;6796;-74
2023/03/14 02:10:30;;;;;;;;;;;;;;;13.79;58.76;98046.63;4961573;28;6792;-75
2023/03/14 02:13:01;;;;;;;;;;;;;;;13.85;58.35;98056.94;4974901;28;6796;-75
2023/03/14 02:15:27;;;;;;;;;;;;;;;13.88;57.79;98067.22;4984497;28;6824;-75
2023/03/14 02:17:53;;;;;;;;;;;;;;;13.95;57.76;98062.88;4967926;28;6956;-75
2023/03/14 02:20:58;;;;;;;;;;;;;;;13.96;58.37;98060.31;4970785;28;6806;-75
2023/03/14 02:23:57;;;;;;;;;;;;;;;13.99;57.48;98068.03;4968020;28;6812;-75
2023/03/14 02:26:37;;;;;;;;;;;;;;;14.03;57.71;98059.44;4983458;28;6874;-74
2023/03/14 02:29:03;;;;;;;;;;;;;;;14.06;58.01;98056.00;4985988;28;6800;-74
2023/03/14 02:31:28;;;;;;;;;;;;;;;14.09;57.59;98052.53;4987210;28;7302;-74
2023/03/14 02:33:57;;;;;;;;;;;;;;;14.11;57.28;98058.56;4966459;28;6777;-74
2023/03/14 02:36:24;;;;;;;;;;;;;;;14.09;57.68;98050.84;4984589;28;6999;-74
2023/03/14 02:39:19;;;;;;;;;;;;;;;14.12;58.33;98052.56;4974091;28;6943;-74
2023/03/14 02:41:46;;;;;;;;;;;;;;;14.07;57.85;98057.72;4975806;28;7012;-74
2023/03/14 02:44:11;;;;;;;;;;;;;;;14.01;58.43;98058.59;4987811;28;6804;-74
2023/03/14 02:46:37;;;;;;;;;;;;;;;13.93;57.66;98052.63;4982621;28;6836;-74
2023/03/14 02:49:12;;;;;;;;;;;;;;;13.86;57.99;98046.63;4986482;28;6799;-74
2023/03/14 02:51:41;;;;;;;;;;;;;;;13.77;58.47;98056.97;4973490;28;6970;-74
2023/03/14 02:54:08;;;;;;;;;;;;;;;13.69;59.00;98059.53;4959953;28;6991;-74
2023/03/14 02:56:33;;;;;;;;;;;;;;;13.66;59.80;98064.69;4966091;28;7213;-74
2023/03/14 02:59:03;;;;;;;;;;;;;;;13.63;59.46;98071.56;4981912;28;8035;-74
2023/03/14 03:01:28;;;;;;;;;;;;;;;13.59;59.59;98052.69;4983231;28;6825;-74
2023/03/14 03:03:54;;;;;;;;;;;;;;;13.63;59.09;98046.69;4983456;28;7381;-74
2023/03/14 03:06:20;;;;;;;;;;;;;;;13.65;59.77;98049.25;4967813;28;6811;-74
2023/03/14 03:08:45;;;;;;;;;;;;;;;13.67;59.30;98055.28;4983694;28;6779;-74
2023/03/14 03:11:11;;;;;;;;;;;;;;;13.66;59.85;98040.66;4975543;28;6851;-74
2023/03/14 03:13:37;;;;;;;;;;;;;;;13.63;59.67;98036.41;4979559;28;9666;-74
2023/03/14 03:16:03;;;;;;;;;;;;;;;13.61;59.68;98027.81;4971202;28;7487;-74
2023/03/14 03:18:29;;;;;;;;;;;;;;;13.59;60.25;98022.69;4972055;28;6821;-74
2023/03/14 03:20:54;;;;;;;;;;;;;;;13.54;60.29;98015.84;4978060;28;7149;-74
2023/03/14 03:23:20;;;;;;;;;;;;;;;13.50;60.69;98014.97;4988717;28;6817;-74
2023/03/14 03:25:51;;;;;;;;;;;;;;;13.47;60.48;98010.69;4976597;28;6768;-74
2023/03/14 03:28:17;;;;;;;;;;;;;;;13.45;60.78;97996.09;4959215;28;6929;-74
2023/03/14 03:30:43;;;;;;;;;;;;;;;13.45;61.21;98004.69;4976163;28;6864;-74
2023/03/14 03:33:10;;;;;;;;;;;;;;;13.44;61.34;97994.38;4982648;28;7000;-74
2023/03/14 03:35:46;;;;;;;;;;;;;;;13.40;61.10;97993.50;4979332;28;7141;-74
2023/03/14 03:38:12;;;;;;;;;;;;;;;13.39;61.13;97999.53;4981206;28;6792;-74
2023/03/14 03:40:38;;;;;;;;;;;;;;;13.35;61.42;97987.53;4951579;28;7205;-74
2023/03/14 03:43:03;;;;;;;;;;;;;;;13.32;61.22;97984.94;4962922;28;6899;-74
2023/03/14 03:45:30;;;;;;;;;;;;;;;13.33;61.56;97987.53;4970167;28;7627;-74
2023/03/14 03:47:56;;;;;;;;;;;;;;;13.30;61.50;97990.13;4981384;28;6871;-74
2023/03/14 03:50:21;;;;;;;;;;;;;;;13.25;62.07;97986.69;4971417;28;6800;-74
2023/03/14 03:52:47;;;;;;;;;;;;;;;13.26;61.55;97982.41;4973167;28;7013;-74
2023/03/14 03:55:13;;;;;;;;;;;;;;;13.26;62.08;97990.97;4979627;28;6813;-74
2023/03/14 03:57:38;;;;;;;;;;;;;;;13.29;61.58;97990.97;4982315;28;7111;-74
2023/03/14 04:00:07;;;;;;;;;;;;;;;13.28;62.11;97984.13;4982233;28;6825;-74
2023/03/14 04:02:32;;;;;;;;;;;;;;;13.26;61.96;97983.25;4975879;28;6820;-74
2023/03/14 04:04:58;;;;;;;;;;;;;;;13.27;61.40;97984.94;4982302;28;7014;-74
2023/03/14 04:07:23;;;;;;;;;;;;;;;13.26;62.42;97982.41;4964511;28;7264;-75
2023/03/14 04:09:49;;;;;;;;;;;;;;;13.29;62.21;97990.97;4981716;28;7233;-74
2023/03/14 04:12:15;;;;;;;;;;;;;;;13.31;61.21;97996.09;4983837;28;6981;-74
2023/03/14 04:14:41;;;;;;;;;;;;;;;13.29;62.50;97988.41;4979682;28;7003;-74
2023/03/14 04:17:07;;;;;;;;;;;;;;;13.28;61.60;97988.41;4979959;28;6776;-74
2023/03/14 04:19:33;;;;;;;;;;;;;;;13.30;61.61;97986.66;4960533;28;6817;-74
2023/03/14 04:21:58;;;;;;;;;;;;;;;13.28;62.44;97984.13;4976289;28;6859;-74
2023/03/14 04:24:24;;;;;;;;;;;;;;;13.30;62.43;97986.66;4978973;28;7209;-74
2023/03/14 04:26:50;;;;;;;;;;;;;;;13.31;62.02;97988.38;4983154;28;6796;-74
2023/03/14 04:29:16;;;;;;;;;;;;;;;13.31;62.39;97972.94;4980012;28;7441;-74
2023/03/14 04:31:41;;;;;;;;;;;;;;;13.32;62.17;97984.94;4976773;28;8207;-74
2023/03/14 04:34:07;;;;;;;;;;;;;;;13.33;61.74;97991.84;4985068;28;6865;-73
2023/03/14 04:36:32;;;;;;;;;;;;;;;13.33;61.98;97981.53;4988309;28;6780;-74
2023/03/14 04:38:58;;;;;;;;;;;;;;;13.31;62.03;97975.53;4979365;28;7682;-74
2023/03/14 04:41:24;;;;;;;;;;;;;;;13.33;62.08;97981.53;4985645;28;7244;-74
2023/03/14 04:43:49;;;;;;;;;;;;;;;13.32;62.34;97959.22;4970678;28;6784;-74
2023/03/14 04:46:15;;;;;;;;;;;;;;;13.33;62.14;97966.94;4976139;28;7910;-74
2023/03/14 04:48:41;;;;;;;;;;;;;;;13.35;61.89;97959.22;4987163;28;6776;-74
2023/03/14 04:51:07;;;;;;;;;;;;;;;13.33;61.99;97966.94;4986402;28;6768;-74
2023/03/14 04:53:33;;;;;;;;;;;;;;;13.32;61.56;97961.78;4976726;28;8115;-74
2023/03/14 04:55:59;;;;;;;;;;;;;;;13.33;62.42;97960.97;4984240;28;6864;-74
2023/03/14 04:58:25;;;;;;;;;;;;;;;13.33;61.97;97946.38;4987221;28;6776;-74
2023/03/14 05:00:51;;;;;;;;;;;;;;;13.36;61.15;97952.34;4981804;28;6780;-74
2023/03/14 05:03:18;;;;;;;;;;;;;;;13.35;61.81;97954.09;4976430;28;7314;-73
2023/03/14 05:05:44;;;;;;;;;;;;;;;13.33;62.12;97948.09;4985607;28;7167;-74
2023/03/14 05:08:11;;;;;;;;;;;;;;;13.31;62.14;97948.09;4986863;28;7121;-74
2023/03/14 05:10:36;;;;;;;;;;;;;;;13.28;61.95;97958.41;4970116;28;7358;-74
2023/03/14 05:13:02;;;;;;;;;;;;;;;13.26;61.86;97949.81;4975829;28;8399;-74
2023/03/14 05:15:28;;;;;;;;;;;;;;;13.27;62.23;97948.09;4983575;28;8667;-74
2023/03/14 05:17:56;;;;;;;;;;;;;;;13.26;62.00;97948.97;4989100;28;7087;-74
2023/03/14 05:20:22;;;;;;;;;;;;;;;13.28;61.84;97944.66;4980824;28;7481;-74
2023/03/14 05:22:48;;;;;;;;;;;;;;;13.27;62.64;97943.78;4976649;28;6955;-74
2023/03/14 05:25:13;;;;;;;;;;;;;;;13.28;61.75;97931.81;4978155;28;6952;-74
2023/03/14 05:27:39;;;;;;;;;;;;;;;13.28;62.48;97931.81;4988511;28;6828;-74
2023/03/14 05:30:06;;;;;;;;;;;;;;;13.25;62.63;97929.25;4991762;28;6818;-74
2023/03/14 05:32:32;;;;;;;;;;;;;;;13.23;62.23;97924.09;4966593;28;6976;-74
2023/03/14 05:34:59;;;;;;;;;;;;;;;13.20;62.92;97930.09;4989855;28;6788;-74
2023/03/14 05:37:28;;;;;;;;;;;;;;;13.25;62.66;97924.09;4969573;28;6788;-74
2023/03/14 05:39:54;;;;;;;;;;;;;;;13.29;62.30;97918.09;4982306;28;7061;-74
2023/03/14 05:42:20;;;;;;;;;;;;;;;13.33;62.32;97922.38;4980527;28;6836;-74
2023/03/14 05:44:45;;;;;;;;;;;;;;;13.30;61.95;97917.22;4968274;28;7054;-74
2023/03/14 05:47:11;;;;;;;;;;;;;;;13.27;62.29;97919.81;4983918;28;6779;-74
2023/03/14 05:49:37;;;;;;;;;;;;;;;13.25;61.72;97909.50;4987564;28;6979;-74
2023/03/14 05:52:02;;;;;;;;;;;;;;;13.25;62.65;97916.38;4981707;28;7201;-74
2023/03/14 05:54:28;;;;;;;;;;;;;;;13.24;62.77;97917.25;4968460;28;7874;-74
2023/03/14 05:56:54;;;;;;;;;;;;;;;13.29;62.21;97918.09;4987887;28;7860;-74
2023/03/14 05:59:19;;;;;;;;;;;;;;;13.34;62.62;97916.38;4970037;28;7272;-74
2023/03/14 06:01:45;;;;;;;;;;;;;;;13.41;62.29;97919.78;4984370;28;6840;-74
2023/03/14 06:04:11;;;;;;;;;;;;;;;13.46;62.53;97915.47;4989101;28;6784;-74
2023/03/14 06:06:36;;;;;;;;;;;;;;;13.50;61.99;97913.75;4986292;28;6780;-74
2023/03/14 06:09:02;;;;;;;;;;;;;;;13.56;62.05;97908.59;4988083;28;6780;-74
2023/03/14 06:11:28;;;;;;;;;;;;;;;13.59;61.93;97916.28;4973254;28;6848;-74
2023/03/14 06:13:53;;;;;;;;;;;;;;;13.64;61.30;97924.88;4988494;28;6768;-74
2023/03/14 06:16:19;;;;;;;;;;;;;;;13.67;61.79;97922.28;4970512;28;6768;-74
2023/03/14 06:18:46;;;;;;;;;;;;;;;13.73;60.97;97918.81;4991633;28;6902;-74
2023/03/14 06:21:12;;;;;;;;;;;;;;;13.80;61.60;97919.63;4988931;28;6875;-74
2023/03/14 06:23:38;;;;;;;;;;;;;;;13.84;60.99;97911.03;4983766;28;7212;-74
2023/03/14 06:26:05;;;;;;;;;;;;;;;13.84;61.34;97909.31;4986949;28;7129;-74
2023/03/14 06:28:31;;;;;;;;;;;;;;;13.86;61.09;97920.47;4973440;28;6854;-74
2023/03/14 06:30:58;;;;;;;;;;;;;;;13.91;61.04;97923.03;4980015;28;6808;-74
2023/03/14 06:33:24;;;;;;;;;;;;;;;13.94;61.43;97923.00;4984122;28;6863;-74
2023/03/14 06:35:49;;;;;;;;;;;;;;;13.99;61.00;97928.97;4984847;28;6956;-74
2023/03/14 06:38:15;;;;;;;;;;;;;;;14.00;61.41;97925.56;4987823;28;6772;-74
2023/03/14 06:40:40;;;;;;;;;;;;;;;14.05;60.57;97930.69;4987072;28;7246;-74
2023/03/14 06:43:06;;;;;;;;;;;;;;;14.09;60.88;97940.09;4988321;28;6943;-74
2023/03/14 06:45:32;;;;;;;;;;;;;;;14.16;60.63;97930.59;4987549;28;6788;-74
2023/03/14 06:47:57;;;;;;;;;;;;;;;14.22;60.86;97927.13;4979369;28;7238;-76
2023/03/14 06:50:23;;;;;;;;;;;;;;;14.25;60.65;97933.13;4987070;28;7162;-76
2023/03/14 06:52:49;;;;;;;;;;;;;;;14.29;60.61;97929.66;4986940;28;6780;-76
2023/03/14 06:55:15;;;;;;;;;;;;;;;14.32;61.14;97931.34;4989481;28;6788;-76
2023/03/14 06:57:41;;;;;;;;;;;;;;;14.38;60.53;97933.03;4968038;28;6978;-76
2023/03/14 07:00:08;;;;;;;;;;;;;;;14.43;60.81;97939.84;4985138;28;6836;-74
2023/03/14 07:02:34;;;;;;;;;;;;;;;14.52;59.87;97943.22;4975599;28;7481;-74
2023/03/14 07:05:00;;;;;;;;;;;;;;;14.53;60.16;97953.53;4963391;28;6975;-74
2023/03/14 07:07:26;;;;;;;;;;;;;;;14.57;60.47;97955.22;4973600;28;6976;-74
2023/03/14 07:09:52;;;;;;;;;;;;;;;14.59;59.73;97952.63;4977620;28;7154;-75
2023/03/14 07:12:18;;;;;;;;;;;;;;;14.62;59.61;97960.34;4984162;28;6818;-74
2023/03/14 07:14:43;;;;;;;;;;;;;;;14.63;59.37;97954.34;4978958;28;7377;-76
2023/03/14 07:17:09;;;;;;;;;;;;;;;14.66;60.16;97953.44;4967395;28;6980;-74
2023/03/14 07:19:35;;;;;;;;;;;;;;;14.69;60.12;97967.16;4985553;28;7470;-74
2023/03/14 07:22:00;;;;;;;;;;;;;;;14.72;59.78;97964.59;4982527;28;7168;-75
2023/03/14 07:24:26;;;;;;;;;;;;;;;14.73;59.46;97975.78;4983819;28;7281;-74
2023/03/14 07:26:52;;;;;;;;;;;;;;;14.72;59.92;97968.88;4986330;28;7283;-74
2023/03/14 07:29:18;;;;;;;;;;;;;;;14.76;59.45;97970.56;4981868;28;6966;-74
2023/03/14 07:31:43;;;;;;;;;;;;;;;14.77;59.30;97972.28;4984481;28;6784;-74
2023/03/14 07:34:09;;;;;;;;;;;;;;;14.78;59.50;97978.31;4983276;28;6772;-74
2023/03/14 07:36:35;;;;;;;;;;;;;;;14.76;59.40;97978.31;4986586;28;6825;-75
2023/03/14 07:39:01;;;;;;;;;;;;;;;14.77;59.99;97982.59;4983539;28;6780;-75
2023/03/14 07:41:26;;;;;;;;;;;;;;;14.81;59.73;97973.13;4984183;28;6952;-74
2023/03/14 07:43:52;;;;;;;;;;;;;;;14.86;59.39;97982.53;4962102;28;6963;-75
2023/03/14 07:46:18;;;;;;;;;;;;;;;14.91;59.68;97985.06;4982632;28;7108;-74
2023/03/14 07:48:44;;;;;;;;;;;;;;;14.91;59.44;97982.50;4977784;28;6768;-78
2023/03/14 07:51:09;;;;;;;;;;;;;;;14.95;59.91;97986.78;4968382;28;6967;-81
2023/03/14 07:53:35;;;;;;;;;;;;;;;15.02;59.54;97994.44;4983615;28;6772;-79
2023/03/14 07:56:00;;;;;;;;;;;;;;;15.11;59.07;97992.66;4957621;28;8564;-81
2023/03/14 07:58:26;;;;;;;;;;;;;;;15.19;59.17;97997.72;4979920;28;6943;-78
2023/03/14 08:00:53;;;;;;;;;;;;;;;15.25;58.69;98001.97;4987876;28;6784;-77
2023/03/14 08:03:18;;;;;;;;;;;;;;;15.33;58.42;97992.44;4967936;28;7563;-78
2023/03/14 08:05:49;;;;;;;;;;;;;;;15.43;58.72;97998.38;4981613;28;6959;-78
2023/03/14 08:08:14;;;;;;;;;;;;;;;15.44;58.66;98000.06;4981825;28;7885;-79
2023/03/14 08:10:40;;;;;;;;;;;;;;;15.34;58.76;98004.47;4982147;28;6788;-78
2023/03/14 08:13:05;;;;;;;;;;;;;;;15.26;58.35;98011.44;4986288;28;7209;-75
2023/03/14 08:15:31;;;;;;;;;;;;;;;15.16;58.69;98010.66;4964889;28;8297;-79
2023/03/14 08:17:58;;;;;;;;;;;;;;;15.06;59.17;98015.03;4966167;28;6975;-76
2023/03/14 08:20:29;;;;;;;;;;;;;;;14.96;59.03;98018.56;4973290;28;6828;-79
2023/03/14 08:23:00;;;;;;;;;;;;;;;14.91;59.53;98025.50;4991989;28;6784;-77
2023/03/14 08:25:27;;;;;;;;;;;;;;;14.82;59.45;98032.44;4988074;28;7238;-79
2023/03/14 08:27:54;;;;;;;;;;;;;;;14.77;59.48;98034.16;4973761;28;7235;-79
2023/03/14 08:30:21;;;;;;;;;;;;;;;14.78;60.21;98035.91;4990115;28;6816;-78
2023/03/14 08:32:47;;;;;;;;;;;;;;;14.80;60.53;98059.94;4985563;28;6807;-79
2023/03/14 08:35:14;;;;;;;;;;;;;;;14.82;60.36;98055.63;4976330;28;8451;-79
2023/03/14 08:37:40;;;;;;;;;;;;;;;14.85;60.37;98052.19;4986092;28;6949;-79
2023/03/14 08:40:09;;;;;;;;;;;;;;;14.83;60.21;98059.09;4991145;28;6764;-79
2023/03/14 08:42:39;;;;;;;;;;;;;;;14.83;60.39;98064.25;4988448;28;6887;-78
2023/03/14 08:45:07;;;;;;;;;;;;;;;14.80;60.36;98090.91;4988972;28;6796;-79
2023/03/14 08:47:33;;;;;;;;;;;;;;;14.75;59.76;98136.47;4988242;28;7710;-79
2023/03/14 08:49:59;;;;;;;;;;;;;;;14.60;58.20;98157.16;4993494;28;6860;-79
2023/03/14 08:52:25;;;;;;;;;;;;;;;14.39;58.70;98164.06;4986695;28;6784;-80
2023/03/14 08:54:51;;;;;;;;;;;;;;;14.13;58.44;98186.47;4979085;28;6788;-80
2023/03/14 08:57:16;;;;;;;;;;;;;;;13.89;58.14;98188.25;4969910;28;7194;-80
2023/03/14 08:59:42;;;;;;;;;;;;;;;13.68;57.83;98198.56;4969048;28;6938;-80
2023/03/14 09:02:12;;;;;;;;;;;;;;;13.52;58.08;98195.09;4987815;28;6952;-79
2023/03/14 09:04:37;;;;;;;;;;;;;;;13.37;58.06;98224.19;4989286;28;7347;-78
2023/03/14 09:07:03;;;;;;;;;;;;;;;13.26;58.88;98226.78;4993070;28;6776;-79
2023/03/14 09:09:30;;;;;;;;;;;;;;;13.18;58.18;98250.75;4987914;28;6840;-80
2023/03/14 09:11:56;;;;;;;;;;;;;;;13.11;59.10;98250.75;4968117;28;9083;-76
2023/03/14 09:14:22;;;;;;;;;;;;;;;13.00;58.72;98258.41;4967482;28;7184;-79
2023/03/14 09:16:48;;;;;;;;;;;;;;;12.90;58.64;98271.22;4988967;28;6861;-79
2023/03/14 09:19:14;;;;;;;;;;;;;;;12.81;58.08;98284.03;4988229;28;6947;-77
2023/03/14 09:21:39;;;;;;;;;;;;;;;12.73;58.64;98311.41;4985596;28;8784;-79
2023/03/14 09:24:06;;;;;;;;;;;;;;;12.65;58.34;98311.38;4984483;28;8593;-79
2023/03/14 09:26:32;;;;;;;;;;;;;;;12.61;59.26;98320.75;4967950;28;8460;-79
2023/03/14 09:28:58;;;;;;;;;;;;;;;12.59;59.20;98331.88;4985299;28;9294;-81
2023/03/14 09:31:24;;;;;;;;;;;;;;;12.55;58.95;98348.13;4987478;28;7708;-80
2023/03/14 09:33:49;;;;;;;;;;;;;;;12.47;58.21;98354.06;4983374;28;7482;-78
2023/03/14 09:36:15;;;;;;;;;;;;;;;12.44;58.33;98376.31;4951941;28;8538;-81
2023/03/14 09:38:41;;;;;;;;;;;;;;;12.38;58.38;98358.28;4991128;28;7430;-75
2023/03/14 09:41:24;;;;;;;;;;;;;;;12.31;58.37;98385.63;4974666;28;6958;-81
2023/03/14 09:44:14;;;;;;;;;;;;;;;12.23;58.87;98400.97;4986254;28;7203;-80
2023/03/14 09:46:44;;;;;;;;;;;;;;;12.20;59.01;98416.34;4983331;28;6999;-81
2023/03/14 09:49:28;;;;;;;;;;;;;;;12.26;59.05;98411.25;4985316;28;6994;-80
2023/03/14 09:51:57;;;;;;;;;;;;;;;12.33;58.79;98436.16;4984301;28;7429;-78
2023/03/14 09:54:40;;;;;;;;;;;;;;;12.40;59.31;98425.97;4970785;28;7177;-80
2023/03/14 09:57:21;;;;;;;;;;;;;;;12.44;59.35;98435.41;4984065;28;9612;-80
2023/03/14 09:59:50;;;;;;;;;;;;;;;12.50;59.13;98449.16;4984825;28;7114;-79
2023/03/14 10:02:24;;;;;;;;;;;;;;;12.57;59.16;98452.66;4987054;28;6811;-79
2023/03/14 10:04:54;;;;;;;;;;;;;;;12.64;59.01;98471.56;4982754;28;6868;-79
2023/03/14 10:07:31;;;;;;;;;;;;;;;12.70;58.62;98473.31;4983553;28;8568;-80
2023/03/14 10:09:59;;;;;;;;;;;;;;;12.69;58.67;98484.44;4987143;28;6800;-79
2023/03/14 10:12:34;;;;;;;;;;;;;;;12.68;58.20;98491.28;4985683;28;8513;-80
2023/03/14 10:15:11;;;;;;;;;;;;;;;12.67;58.64;98499.00;4970403;28;6863;-81
2023/03/14 10:17:48;;;;;;;;;;;;;;;12.72;58.56;98503.34;4970633;28;6923;-79
2023/03/14 10:20:43;;;;;;;;;;;;;;;12.80;59.05;98511.09;4991308;28;7054;-81
2023/03/14 10:23:11;;;;;;;;;;;;;;;12.81;58.70;98492.25;4986688;28;7894;-81
2023/03/14 10:25:46;;;;;;;;;;;;;;;12.87;58.71;98512.88;4987742;28;6807;-81
2023/03/14 10:28:51;;;;;;;;;;;;;;;12.97;58.34;98513.81;4985108;28;7086;-80
2023/03/14 10:31:18;;;;;;;;;;;;;;;13.09;58.00;98533.63;4983237;28;6992;-80
2023/03/14 10:34:01;;;;;;;;;;;;;;;13.26;57.42;98540.63;4985588;28;7161;-82
2023/03/14 10:36:34;;;;;;;;;;;;;;;13.39;57.76;98557.00;4992390;28;6863;-78
2023/03/14 10:39:48;;;;;;;;;;;;;;;13.47;57.37;98560.50;4952631;28;7002;-78
2023/03/14 10:42:25;;;;;;;;;;;;;;;13.47;56.87;98575.94;4969613;28;7034;-80
2023/03/14 10:45:26;;;;;;;;;;;;;;;13.47;56.56;98579.38;4986850;28;7139;-81
2023/03/14 10:47:52;;;;;;;;;;;;;;;13.52;55.68;98604.28;4972505;28;7316;-80
2023/03/14 10:50:31;;;;;;;;;;;;;;;13.58;56.08;98614.63;4967728;28;7232;-80
2023/03/14 10:53:06;;;;;;;;;;;;;;;13.61;56.12;98618.09;4966971;28;7439;-79
2023/03/14 10:55:45;;;;;;;;;;;;;;;13.68;56.23;98626.72;4984962;28;6864;-76
2023/03/14 10:58:29;;;;;;;;;;;;;;;13.73;55.79;98630.19;4987184;28;6808;-79
2023/03/14 11:01:29;;;;;;;;;;;;;;;13.69;55.29;98641.31;4983565;28;7040;-78
2023/03/14 11:04:35;;;;;;;;;;;;;;;13.67;55.90;98639.59;4990194;28;6968;-76
2023/03/14 11:07:33;;;;;;;;;;;;;;;13.70;55.50;98639.59;4988112;28;7032;-77
2023/03/14 11:10:43;;;;;;;;;;;;;;;13.63;55.23;98642.97;4971150;28;7287;-80
2023/03/14 11:13:44;;;;;;;;;;;;;;;13.57;54.26;98648.94;4908398;29;6793;-78
2023/03/14 11:16:58;;;;;;;;;;;;;;;13.48;54.77;98649.75;4906827;29;6816;-79
2023/03/14 11:20:15;;;;;;;;;;;;;;;13.40;54.01;98718.25;4962416;28;7008;-80
2023/03/14 11:23:03;;;;;;;;;;;;;;;13.17;53.37;98742.91;4930757;28;6993;-77
2023/03/14 11:26:07;;;;;;;;;;;;;;;12.79;53.45;98753.59;4929258;28;7210;-75
2023/03/14 11:28:47;;;;;;;;;;;;;;;12.42;53.83;98774.53;4983286;28;7130;-79
2023/03/14 11:31:26;;;;;;;;;;;;;;;12.10;54.67;98786.91;4964200;28;7796;-77
2023/03/14 11:34:09;;;;;;;;;;;;;;;11.81;55.04;98786.41;4981896;28;7251;-80
2023/03/14 11:36:52;;;;;;;;;;;;;;;11.60;55.72;98802.28;4966698;28;6820;-79
2023/03/14 11:39:20;;;;;;;;;;;;;;;11.46;55.40;98806.31;4976979;28;7864;-78
2023/03/14 11:41:51;;;;;;;;;;;;;;;11.38;56.32;98808.72;4981107;28;7195;-80
2023/03/14 11:44:32;;;;;;;;;;;;;;;11.37;56.63;98830.06;4985634;28;7257;-78
2023/03/14 11:47:22;;;;;;;;;;;;;;;11.43;56.72;98821.63;4981459;28;6809;-80
2023/03/14 11:50:24;;;;;;;;;;;;;;;11.47;56.79;98823.44;4984231;28;7435;-80
2023/03/14 11:53:10;;;;;;;;;;;;;;;11.58;57.13;98839.00;4988998;28;6996;-79
2023/03/14 11:55:40;;;;;;;;;;;;;;;11.74;56.74;98841.03;4992164;28;6947;-77
2023/03/14 11:58:25;;;;;;;;;;;;;;;11.98;56.51;98846.56;4967827;28;7974;-79
2023/03/14 12:00:56;;;;;;;;;;;;;;;12.15;56.47;98865.75;4990184;28;7268;-78
2023/03/14 12:03:42;;;;;;;;;;;;;;;12.28;56.57;98860.81;4971902;28;7194;-78
2023/03/14 12:06:24;;;;;;;;;;;;;;;12.40;55.74;98875.56;4973315;28;6973;-76
2023/03/14 12:08:59;;;;;;;;;;;;;;;12.52;54.75;98882.59;4991839;28;7884;-78
2023/03/14 12:11:43;;;;;;;;;;;;;;;12.58;55.45;98883.56;4985715;28;7946;-80
2023/03/14 12:14:30;;;;;;;;;;;;;;;12.61;54.67;98901.59;4989513;28;6832;-77
2023/03/14 12:17:18;;;;;;;;;;;;;;;12.62;54.25;98915.31;4986036;28;6876;-77
2023/03/14 12:19:46;;;;;;;;;;;;;;;12.65;54.01;98912.78;4972588;28;6999;-78
2023/03/14 12:22:28;;;;;;;;;;;;;;;12.75;54.06;98913.81;4971804;28;6913;-77
2023/03/14 12:25:28;;;;;;;;;;;;;;;12.90;53.86;98921.72;4957207;28;6968;-78
2023/03/14 12:27:56;;;;;;;;;;;;;;;13.09;53.44;98928.88;4971657;28;6784;-75
2023/03/14 12:30:32;;;;;;;;;;;;;;;13.25;53.04;98932.50;4990927;28;6818;-79
2023/03/14 12:33:10;;;;;;;;;;;;;;;13.40;53.36;98935.28;4972882;28;7548;-79
2023/03/14 12:35:40;;;;;;;;;;;;;;;13.46;52.52;98940.53;4992031;28;6889;-78
2023/03/14 12:38:40;;;;;;;;;;;;;;;13.54;52.36;98952.66;4990341;28;7062;-79
2023/03/14 12:41:36;;;;;;;;;;;;;;;13.53;52.28;98961.22;4989615;28;7039;-78
2023/03/14 12:44:30;;;;;;;;;;;;;;;13.46;51.09;98971.44;4993489;28;7058;-75
2023/03/14 12:47:18;;;;;;;;;;;;;;;13.43;51.37;98973.06;4990333;28;7142;-79
2023/03/14 12:49:52;;;;;;;;;;;;;;;13.42;51.63;98973.91;4962683;28;7228;-79
2023/03/14 12:53:06;;;;;;;;;;;;;;;13.46;51.41;98984.28;4985569;28;7146;-76
2023/03/14 12:56:00;;;;;;;;;;;;;;;13.52;51.95;98985.22;4977068;28;6816;-78
2023/03/14 12:58:43;;;;;;;;;;;;;;;13.53;51.92;99013.56;4990451;28;6996;-78
2023/03/14 13:01:18;;;;;;;;;;;;;;;13.50;50.55;99010.06;4973097;28;7322;-78
2023/03/14 13:03:55;;;;;;;;;;;;;;;13.41;50.71;99011.63;4974248;28;6804;-78
2023/03/14 13:06:51;;;;;;;;;;;;;;;13.26;49.89;99040.56;4987018;28;7228;-78
2023/03/14 13:09:25;;;;;;;;;;;;;;;13.02;49.34;99056.50;4970379;28;6880;-77
2023/03/14 13:11:53;;;;;;;;;;;;;;;12.68;49.53;99068.78;4985983;28;7165;-78
2023/03/14 13:14:20;;;;;;;;;;;;;;;12.32;50.05;99078.41;4967693;28;7057;-79
2023/03/14 13:16:47;;;;;;;;;;;;;;;11.98;49.96;99090.50;4992021;28;6796;-74
2023/03/14 13:19:24;;;;;;;;;;;;;;;11.65;50.35;99110.31;4975622;28;8506;-74